Terminal Aerodrome Forecast
Issued by NWS

Current Version | Previous Version | Text Only | Print | Product List | Glossary On
Versions: 1 2 3 4 5 6 7 8 9 10 11 12 13 14
000
FTAK31 PAJN 211120
TAFAKT
TAF
PAKT 211120Z 2112/2212 14008KT P6SM SCT025 BKN040 OVC060
      TEMPO 2112/2116 BKN025 OVC035
     FM211600 14010KT P6SM VCSH SCT025 OVC040 WS020/15030KT
     FM212000 12012KT 6SM -RA BKN025 OVC035 WS020/14035KT
      AMD LTD TO CLD VIS AND WIND 2112/2115=

USA.gov is the U.S. government's official web portal to all federal, state and local government web resources and services.